Terminal Aerodrome Forecast
Issued by NWS

Home | Current Version | Previous Version | Text Only | Print | Product List | Glossary On
Versions: 1 2 3 4 5 6 7 8 9 10 11 12 13 14 15 16 17 18 19 20 21 22 23 24 25 26 27 28
000
FTUS43 KDLH 232000 AAA
TAFBRD
TAF AMD
KBRD 232004Z 2320/2418 24005KT 6SM BR FEW004 OVC080
     FM232300 28007KT 6SM -DZ BR SCT004 OVC015
     FM240200 32010G18KT 4SM -FZDZ OVC007
     FM240800 32015G23KT 2SM -SN BLSN OVC015
     FM241500 33018G26KT 2SM -SN BLSN OVC015=

USA.gov is the U.S. government's official web portal to all federal, state and local government web resources and services.